Aérodrome :
LOGIN :

S'inscrire | Disclaimer

   EN    FR    IT 

 










Légende :    VFR   VFR Marginal   IFR   IFR Intensif   IFR Très Intensif
Visi : 
Plafond : 
>= 8 km
>= 3000ft
5 à 8 km
1000 à 3000 ft
1500m à 5 km
500 à 1000 ft
800 à 1500m
200 à 500 ft
< 800m
< 200 ft
Symboles :   Orages  Brouillard  Fortes neiges  Fortes précipitations  Vent > 20 kt
SIGMETs :   Divers  Orages  Givrage  Turbulence  Onde Orograph.  Cendres Volcan.







- Altitude de l'aérodrome : 778 ft
- Code IATA : BRQ


LKTB - Brno-Turany

DERNIER METAR :
  • 171900Z 29003KT 5000 -RA BR OVC030 04/03 Q1023 NOSIG

METARs EXPIRÉS :
  • 171830Z 31003KT 5000 -RA BR OVC026 04/03 Q1023 NOSIG
  • 171800Z 33008KT 6000 -RA OVC028 04/03 Q1023 NOSIG
  • 171730Z 33009KT 6000 -RA OVC029 04/03 Q1023 NOSIG
  • 171700Z 33007KT 7000 -RA NSC 04/03 Q1023 NOSIG
  • 171651Z 33008KT 8000 -RA NSC 04/02 Q1023 RMK REG QNH 1021
  • 171630Z 32010KT 8000 FEW027 SCT048 04/02 Q1023 NOSIG

TAF TAF LKTB
Valide du 17 à 18h jusqu'au 19 à 00h UTC


171700Z 1718/1900 33009KT 6000 BKN030
TEMPO 1718/1803 3000 -RA BKN020
TEMPO 1803/1808 1500 BR SCT005
TEMPO 1809/1821 9999 SCT040
Pas de NOTAMs connus pour ce terrain.



MET'MAP, la Météo Aéronautique d'un coup d'oeil ! - Copyright ORBIFLY Décembre 2007 - Disclaimer

ORBIFLY MET'MAP TEAM :

Programmation & Développement : Alexandra Zaïnal
Conception & Développement : Baudouin d'Aumeries
Co-Programmation & Développement : Marc-Olivier Méhu
Soutien technique & logistique : Manuel Goepfert

Contact : metmap@orbifly.com




SOURCES & CREDITS :

   NOAA